This is the latest recevied weather packets stored in our database for station/object CX2SA-13. If no packets are shown the sender has not sent any weather packets the latest 10 day(s).
| Time | Temp. | Humidity | Pressure | Rain* | Wind** | Luminosity | Snow |
|---|---|---|---|---|---|---|---|
| 1777737585 | 19.44° C | 47% | 1022.3 hPa | 0 mm | - | - | - |
| 1777736684 | 20.56° C | 47% | 1022.3 hPa | 0 mm | - | - | - |
| 1777735785 | 20° C | 49% | 1022.3 hPa | 0 mm | - | - | - |
| 1777734885 | 20° C | 50% | 1022.3 hPa | 0 mm | - | - | - |
| 1777733984 | 19.44° C | 50% | 1022.3 hPa | 0 mm | - | - | - |
| 1777733085 | 20° C | 51% | 1022.3 hPa | 0 mm | - | - | - |
| 1777732185 | 19.44° C | 53% | 1022.3 hPa | 0 mm | - | - | - |
| 1777731284 | 18.89° C | 55% | 1022.3 hPa | 0 mm | - | - | - |
| 1777730385 | 18.89° C | 58% | 1022 hPa | 0 mm | - | - | - |
| 1777729486 | 17.78° C | 64% | 1022 hPa | 0 mm | - | - | - |
| 1777728584 | 17.78° C | 65% | 1021.3 hPa | 0 mm | - | - | - |
| 1777727685 | 17.22° C | 67% | 1021 hPa | 0 mm | - | - | - |
| 1777726784 | 17.22° C | 72% | 1020.3 hPa | 0 mm | - | - | - |
| 1777725884 | 16.67° C | 75% | 1020.3 hPa | 0 mm | - | - | - |
| 1777724985 | 16.11° C | 79% | 1019.3 hPa | 0 mm | - | - | - |
| 1777724084 | 15.56° C | 83% | 1019.3 hPa | 0 mm | - | - | - |
| 1777723185 | 15° C | 86% | 1019.3 hPa | 0 mm | - | - | - |
| 1777722286 | 14.44° C | 88% | 1019.3 hPa | 0 mm | - | - | - |
| 1777721384 | 13.89° C | 90% | 1018.2 hPa | 0 mm | - | - | - |
| 1777720485 | 13.89° C | 91% | 1018.2 hPa | 0 mm | - | - | - |
| 1777719583 | 13.33° C | 92% | 1018.2 hPa | 0 mm | - | - | - |
| 1777718684 | 13.33° C | 93% | 1017.9 hPa | 0 mm | - | - | - |
| 1777717785 | 13.33° C | 92% | 1017.2 hPa | 0 mm | - | - | - |
| 1777716884 | 13.33° C | 91% | 1017.2 hPa | 0 mm | - | - | - |
| 1777715984 | 13.89° C | 90% | 1016.9 hPa | 0 mm | - | - | - |
* Rain since midnight (hover to see other rain measurements)
** Current wind speed in m/s (hover to see current wind gust speed)